createdAt,value
2018-11-26T00:01:44.202Z,96344.73
2018-11-26T00:04:11.097Z,96341.59
2018-11-26T00:06:38.068Z,96341.33
2018-11-26T00:09:05.072Z,96340.03
2018-11-26T00:11:32.108Z,96336.63
2018-11-26T00:13:59.100Z,96338.45
2018-11-26T00:16:25.999Z,96337.41
2018-11-26T00:18:52.894Z,96325.89
2018-11-26T00:21:19.778Z,96324.85
2018-11-26T00:23:46.661Z,96320.92
2018-11-26T00:26:13.554Z,96324.33
2018-11-26T00:28:40.444Z,96319.09
2018-11-26T00:31:07.347Z,96321.71
2018-11-26T00:33:34.248Z,96313.08
2018-11-26T00:36:01.146Z,96315.17
2018-11-26T00:38:28.029Z,96314.39
2018-11-26T00:40:54.943Z,96310.98
2018-11-26T00:43:21.830Z,96305.75
2018-11-26T00:45:48.751Z,96303.39
2018-11-26T00:48:15.640Z,96307.06
2018-11-26T00:50:42.547Z,96300.52
2018-11-26T00:53:09.455Z,96306.02
2018-11-26T00:55:36.343Z,96306.53
2018-11-26T00:58:03.242Z,96307.06
2018-11-26T01:00:30.139Z,96301.04
2018-11-26T01:02:57.050Z,96304.44
2018-11-26T01:05:23.930Z,96303.13
2018-11-26T01:07:50.810Z,96301.30
2018-11-26T01:10:17.694Z,96299.21
2018-11-26T01:12:44.580Z,96298.69
2018-11-26T01:15:11.470Z,96303.39
2018-11-26T01:17:38.344Z,96301.56
2018-11-26T01:20:05.266Z,96307.58
2018-11-26T01:22:32.153Z,96303.13
2018-11-26T01:24:59.043Z,96303.91
2018-11-26T01:27:25.938Z,96301.83
2018-11-26T01:29:52.859Z,96296.59
2018-11-26T01:32:19.806Z,96301.83
2018-11-26T01:34:46.707Z,96297.11
2018-11-26T01:37:13.622Z,96295.28
2018-11-26T01:39:40.510Z,96299.98
2018-11-26T01:42:07.403Z,96301.30
2018-11-26T01:44:34.298Z,96297.89
2018-11-26T01:47:01.202Z,96301.83
2018-11-26T01:49:28.092Z,96307.84
2018-11-26T01:51:54.977Z,96309.15
2018-11-26T01:54:21.881Z,96311.24
2018-11-26T01:56:48.804Z,96309.67
2018-11-26T01:59:15.693Z,96308.36
2018-11-26T02:01:42.583Z,96314.91
2018-11-26T02:04:09.470Z,96314.64
2018-11-26T02:06:36.377Z,96314.12
2018-11-26T02:09:03.350Z,96313.08
2018-11-26T02:11:30.252Z,96309.67
2018-11-26T02:13:57.141Z,96303.66
2018-11-26T02:16:24.075Z,96305.75
2018-11-26T02:18:50.979Z,96309.67
2018-11-26T02:21:17.867Z,96292.13
2018-11-26T02:23:44.775Z,96316.73
2018-11-26T02:26:11.666Z,96318.31
2018-11-26T02:28:38.545Z,96310.45
2018-11-26T02:31:05.437Z,96312.55
2018-11-26T02:33:32.391Z,96306.53
2018-11-26T02:35:59.290Z,96306.27
2018-11-26T02:38:26.196Z,96306.53
2018-11-26T02:40:53.091Z,96300.77
2018-11-26T02:43:19.978Z,96299.20
2018-11-26T02:45:46.862Z,96297.37
2018-11-26T02:48:13.754Z,96300.52
2018-11-26T02:50:40.679Z,96301.30
2018-11-26T02:53:07.583Z,96305.22
2018-11-26T02:55:34.465Z,96303.13
2018-11-26T02:58:01.371Z,96293.45
2018-11-26T03:00:28.270Z,96291.36
2018-11-26T03:02:55.175Z,96291.36
2018-11-26T03:05:22.110Z,96286.91
2018-11-26T03:07:49.148Z,96284.81
2018-11-26T03:10:16.043Z,96275.66
2018-11-26T03:12:42.959Z,96282.45
2018-11-26T03:15:09.862Z,96283.51
2018-11-26T03:17:36.750Z,96290.83
2018-11-26T03:20:03.643Z,96288.22
2018-11-26T03:22:30.521Z,96288.22
2018-11-26T03:24:57.407Z,96285.34
2018-11-26T03:27:24.302Z,96286.12
2018-11-26T03:29:51.215Z,96280.89
2018-11-26T03:32:18.101Z,96292.41
2018-11-26T03:34:45.000Z,96298.69
2018-11-26T03:37:11.896Z,96286.91
2018-11-26T03:39:38.799Z,96292.66
2018-11-26T03:42:05.690Z,96289.27
2018-11-26T03:44:32.580Z,96285.86
2018-11-26T03:46:59.475Z,96277.48
2018-11-26T03:49:26.369Z,96275.66
2018-11-26T03:51:53.258Z,96279.58
2018-11-26T03:54:20.174Z,96276.97
2018-11-26T03:56:47.199Z,96277.75
2018-11-26T03:59:14.094Z,96276.44
2018-11-26T04:01:41.035Z,96267.81
2018-11-26T04:04:07.927Z,96258.39
2018-11-26T04:06:34.826Z,96258.65
2018-11-26T04:09:01.714Z,96259.17
2018-11-26T04:11:28.593Z,96259.17
2018-11-26T04:13:55.482Z,96255.25
2018-11-26T04:16:22.416Z,96266.50
2018-11-26T04:18:49.316Z,96254.98
2018-11-26T04:21:16.201Z,96257.87
2018-11-26T04:23:43.110Z,96255.25
2018-11-26T04:26:10.011Z,96259.95
2018-11-26T04:28:36.915Z,96259.95
2018-11-26T04:31:03.822Z,96263.09
2018-11-26T04:33:30.712Z,96259.95
2018-11-26T04:35:57.925Z,96269.64
2018-11-26T04:38:24.945Z,96266.23
2018-11-26T04:40:51.921Z,96266.50
2018-11-26T04:43:18.941Z,96269.11
2018-11-26T04:45:46.112Z,96272.52
2018-11-26T04:48:13.049Z,96277.48
2018-11-26T04:50:39.950Z,96278.02
2018-11-26T04:53:07.172Z,96277.75
2018-11-26T04:55:34.112Z,96286.12
2018-11-26T04:58:01.037Z,96284.81
2018-11-26T05:00:28.237Z,96276.18
2018-11-26T05:02:55.256Z,96283.51
2018-11-26T05:05:22.183Z,96278.02
2018-11-26T05:07:49.094Z,96271.47
2018-11-26T05:10:16.058Z,96269.64
2018-11-26T05:12:43.016Z,96271.73
2018-11-26T05:15:09.907Z,96269.11
2018-11-26T05:17:36.807Z,96269.91
2018-11-26T05:20:03.735Z,96271.73
2018-11-26T05:22:30.619Z,96270.42
2018-11-26T05:24:57.498Z,96274.09
2018-11-26T05:27:24.465Z,96273.83
2018-11-26T05:29:51.375Z,96277.48
2018-11-26T05:32:18.275Z,96271.99
2018-11-26T05:34:45.166Z,96272.52
2018-11-26T05:37:12.068Z,96270.42
2018-11-26T05:39:38.967Z,96267.81
2018-11-26T05:42:05.850Z,96267.81
2018-11-26T05:44:32.754Z,96264.67
2018-11-26T05:46:59.653Z,96269.63
2018-11-26T05:49:26.556Z,96276.70
2018-11-26T05:51:53.466Z,96278.27
2018-11-26T05:54:20.354Z,96271.73
2018-11-26T05:56:47.270Z,96274.34
2018-11-26T05:59:14.197Z,96269.64
2018-11-26T06:01:41.092Z,96271.73
2018-11-26T06:04:07.986Z,96276.97
2018-11-26T06:06:34.885Z,96275.13
2018-11-26T06:09:01.782Z,96269.38
2018-11-26T06:11:28.683Z,96270.16
2018-11-26T06:13:55.612Z,96279.05
2018-11-26T06:16:22.533Z,96283.51
2018-11-26T06:18:49.437Z,96280.89
2018-11-26T06:21:16.338Z,96276.18
2018-11-26T06:23:43.235Z,96281.94
2018-11-26T06:26:10.132Z,96279.05
2018-11-26T06:28:37.022Z,96280.37
2018-11-26T06:31:04.015Z,96276.70
2018-11-26T06:33:30.907Z,96279.05
2018-11-26T06:35:57.798Z,96282.98
2018-11-26T06:38:24.704Z,96284.03
2018-11-26T06:40:51.594Z,96291.36
2018-11-26T06:43:18.499Z,96293.97
2018-11-26T06:45:45.387Z,96293.71
2018-11-26T06:48:12.281Z,96293.71
2018-11-26T06:50:39.200Z,96299.20
2018-11-26T06:53:06.093Z,96292.41
2018-11-26T06:55:33.000Z,96295.02
2018-11-26T06:57:59.881Z,96297.11
2018-11-26T07:00:26.803Z,96302.88
2018-11-26T07:02:53.703Z,96301.56
2018-11-26T07:05:20.848Z,96310.72
2018-11-26T07:07:47.809Z,96313.59
2018-11-26T07:10:14.713Z,96311.25
2018-11-26T07:12:41.634Z,96312.03
2018-11-26T07:15:08.547Z,96315.17
2018-11-26T07:17:35.458Z,96317.26
2018-11-26T07:20:02.348Z,96323.80
2018-11-26T07:22:29.258Z,96323.80
2018-11-26T07:24:56.142Z,96327.98
2018-11-26T07:27:23.017Z,96327.73
2018-11-26T07:29:49.915Z,96326.94
2018-11-26T07:32:16.817Z,96326.68
2018-11-26T07:34:43.713Z,96323.80
2018-11-26T07:37:10.623Z,96319.09
2018-11-26T07:39:37.545Z,96325.11
2018-11-26T07:42:04.467Z,96325.89
2018-11-26T07:44:31.356Z,96326.94
2018-11-26T07:46:58.271Z,96326.39
2018-11-26T07:49:25.190Z,96328.22
2018-11-26T07:51:52.078Z,96322.47
2018-11-26T07:54:18.958Z,96334.24
2018-11-26T07:56:45.872Z,96328.22
2018-11-26T07:59:12.760Z,96325.08
2018-11-26T08:01:39.641Z,96329.80
2018-11-26T08:04:06.553Z,96328.52
2018-11-26T08:06:33.441Z,96334.53
2018-11-26T08:09:00.333Z,96340.55
2018-11-26T08:11:27.258Z,96337.15
2018-11-26T08:13:54.159Z,96339.23
2018-11-26T08:16:21.080Z,96339.23
2018-11-26T08:18:47.983Z,96347.09
2018-11-26T08:21:14.867Z,96345.00
2018-11-26T08:23:41.760Z,96345.26
2018-11-26T08:26:08.673Z,96349.19
2018-11-26T08:28:35.561Z,96353.11
2018-11-26T08:31:02.464Z,96354.16
2018-11-26T08:33:29.360Z,96353.62
2018-11-26T08:36:01.682Z,96355.98
2018-11-26T08:38:33.864Z,96358.08
2018-11-26T08:41:06.104Z,96354.16
2018-11-26T08:43:35.817Z,96350.75
2018-11-26T08:46:09.245Z,96353.62
2018-11-26T08:48:36.270Z,96360.17
2018-11-26T08:51:03.294Z,96358.08
2018-11-26T08:53:30.311Z,96363.31
2018-11-26T08:55:57.363Z,96359.91
2018-11-26T08:58:24.381Z,96364.09
2018-11-26T09:00:56.758Z,96371.42
2018-11-26T09:03:23.788Z,96371.16
2018-11-26T09:06:00.226Z,96373.78
2018-11-26T09:08:27.207Z,96381.89
2018-11-26T09:10:54.165Z,96379.80
2018-11-26T09:13:21.067Z,96382.41
2018-11-26T09:15:48.053Z,96382.15
2018-11-26T09:18:15.032Z,96381.63
2018-11-26T09:20:42.023Z,96386.86
2018-11-26T09:23:09.514Z,96382.94
2018-11-26T09:25:36.463Z,96377.41
2018-11-26T09:28:03.424Z,96382.94
2018-11-26T09:30:30.427Z,96379.53
2018-11-26T09:32:57.327Z,96380.31
2018-11-26T09:35:24.315Z,96382.94
2018-11-26T09:37:51.211Z,96385.27
2018-11-26T09:40:18.130Z,96380.31
2018-11-26T09:42:45.041Z,96383.72
2018-11-26T09:45:11.976Z,96385.27
2018-11-26T09:47:38.861Z,96393.11
2018-11-26T09:50:05.754Z,96386.30
2018-11-26T09:52:32.655Z,96390.00
2018-11-26T09:54:59.555Z,96383.20
2018-11-26T09:57:26.440Z,96388.85
2018-11-26T09:59:53.344Z,96391.76
2018-11-26T10:02:20.265Z,96384.89
2018-11-26T10:04:47.160Z,96385.48
2018-11-26T10:07:14.053Z,96388.45
2018-11-26T10:09:40.939Z,96382.49
2018-11-26T10:12:07.846Z,96379.36
2018-11-26T10:14:34.737Z,96379.11
2018-11-26T10:17:01.630Z,96387.73
2018-11-26T10:19:28.620Z,96387.78
2018-11-26T10:21:55.492Z,96380.98
2018-11-26T10:24:22.378Z,96384.91
2018-11-26T10:26:49.261Z,96382.55
2018-11-26T10:29:16.269Z,96382.03
2018-11-26T10:31:43.173Z,96385.70
2018-11-26T10:34:10.058Z,96382.03
2018-11-26T10:36:36.946Z,96382.30
2018-11-26T10:39:04.519Z,96382.30
2018-11-26T10:41:31.398Z,96388.58
2018-11-26T10:43:58.304Z,96391.98
2018-11-26T10:46:25.189Z,96390.67
2018-11-26T10:48:52.108Z,96390.44
2018-11-26T10:51:19.069Z,96388.61
2018-11-26T10:53:45.950Z,96390.18
2018-11-26T10:56:12.841Z,96398.03
2018-11-26T10:58:39.725Z,96384.42
2018-11-26T11:01:11.989Z,96386.00
2018-11-26T11:03:38.873Z,96387.30
2018-11-26T11:06:05.753Z,96390.70
2018-11-26T11:08:32.638Z,96389.92
2018-11-26T11:10:59.635Z,96387.30
2018-11-26T11:13:26.504Z,96387.83
2018-11-26T11:15:53.413Z,96390.19
2018-11-26T11:18:20.292Z,96389.14
2018-11-26T11:20:47.177Z,96382.59
2018-11-26T11:23:14.067Z,96385.73
2018-11-26T11:25:40.959Z,96387.83
2018-11-26T11:28:07.855Z,96388.09
2018-11-26T11:30:34.844Z,96387.31
2018-11-26T11:35:27.812Z,96387.31
2018-11-26T11:37:55.142Z,96384.17
2018-11-26T11:40:22.034Z,96387.05
2018-11-26T11:42:49.010Z,96385.22
2018-11-26T11:45:15.955Z,96391.23
2018-11-26T11:47:42.876Z,96388.09
2018-11-26T11:50:09.785Z,96388.62
2018-11-26T11:52:36.707Z,96390.19
2018-11-26T11:55:03.619Z,96391.50
2018-11-26T11:57:30.515Z,96386.79
2018-11-26T11:59:57.512Z,96393.59
2018-11-26T12:02:24.469Z,96389.67
2018-11-26T12:04:51.380Z,96392.28
2018-11-26T12:07:18.318Z,96383.13
2018-11-26T12:09:45.510Z,96388.36
2018-11-26T12:12:12.443Z,96386.27
2018-11-26T12:14:39.609Z,96386.53
2018-11-26T12:17:06.540Z,96386.53
2018-11-26T12:19:33.777Z,96383.66
2018-11-26T12:22:00.680Z,96390.72
2018-11-26T12:24:27.792Z,96389.14
2018-11-26T12:26:54.805Z,96386.53
2018-11-26T12:29:22.005Z,96396.47
2018-11-26T12:31:48.924Z,96396.47
2018-11-26T12:34:16.097Z,96397.78
2018-11-26T12:36:43.051Z,96405.63
2018-11-26T12:39:10.197Z,96400.66
2018-11-26T12:41:37.109Z,96407.72
2018-11-26T12:44:04.310Z,96404.84
2018-11-26T12:46:31.477Z,96404.31
2018-11-26T12:48:58.387Z,96409.81
2018-11-26T12:51:25.560Z,96407.20
2018-11-26T12:53:52.476Z,96412.42
2018-11-26T12:56:19.662Z,96398.56
2018-11-26T12:58:46.560Z,96411.12
2018-11-26T13:01:13.751Z,96412.69
2018-11-26T13:03:40.680Z,96414.25
2018-11-26T13:06:07.873Z,96407.72
2018-11-26T13:08:34.796Z,96412.95
2018-11-26T13:11:01.972Z,96409.29
2018-11-26T13:13:28.890Z,96411.91
2018-11-26T13:15:56.077Z,96410.59
2018-11-26T13:18:22.993Z,96414.00
2018-11-26T13:20:49.945Z,96407.45
2018-11-26T13:23:16.852Z,96412.20
2018-11-26T13:25:43.769Z,96418.22
2018-11-26T13:28:10.678Z,96416.91
2018-11-26T13:30:37.571Z,96420.31
2018-11-26T13:33:04.475Z,96421.09
2018-11-26T13:35:31.396Z,96422.41
2018-11-26T13:37:58.286Z,96424.50
2018-11-26T13:40:25.225Z,96426.33
2018-11-26T13:42:52.137Z,96427.63
2018-11-26T13:45:19.046Z,96433.66
2018-11-26T13:47:45.952Z,96429.46
2018-11-26T13:50:12.847Z,96433.39
2018-11-26T13:52:39.752Z,96432.87
2018-11-26T13:55:06.651Z,96429.46
2018-11-26T13:57:33.588Z,96438.09
2018-11-26T14:00:00.485Z,96437.31
2018-11-26T14:02:27.388Z,96445.69
2018-11-26T14:04:54.307Z,96446.99
2018-11-26T14:07:21.194Z,96448.30
2018-11-26T14:09:48.092Z,96451.44
2018-11-26T14:12:15.021Z,96447.52
2018-11-26T14:14:41.919Z,96448.82
2018-11-26T14:17:08.842Z,96454.84
2018-11-26T14:19:35.740Z,96456.15
2018-11-26T14:22:02.675Z,96455.85
2018-11-26T14:24:29.884Z,96463.20
2018-11-26T14:26:56.775Z,96468.44
2018-11-26T14:29:23.675Z,96466.88
2018-11-26T14:31:50.569Z,96465.83
2018-11-26T14:34:17.462Z,96467.13
2018-11-26T14:36:44.356Z,96471.05
2018-11-26T14:39:11.271Z,96481.00
2018-11-26T14:41:38.177Z,96476.29
2018-11-26T14:44:05.086Z,96476.29
2018-11-26T14:46:31.986Z,96481.00
2018-11-26T14:48:58.898Z,96483.32
2018-11-26T14:51:25.782Z,96483.32
2018-11-26T14:53:52.674Z,96494.08
2018-11-26T14:56:19.578Z,96501.63
2018-11-26T14:58:46.523Z,96495.91
2018-11-26T15:01:13.420Z,96491.98
2018-11-26T15:03:40.340Z,96495.09
2018-11-26T15:06:07.244Z,96495.91
2018-11-26T15:08:34.144Z,96496.92
2018-11-26T15:11:01.048Z,96495.61
2018-11-26T15:13:27.950Z,96497.71
2018-11-26T15:15:54.851Z,96502.16
2018-11-26T15:18:21.751Z,96506.38
2018-11-26T15:20:48.665Z,96497.71
2018-11-26T15:23:15.637Z,96503.50
2018-11-26T15:25:42.520Z,96469.11
2018-11-26T15:28:09.417Z,96509.52
2018-11-26T15:30:36.324Z,96507.69
2018-11-26T15:33:03.223Z,96513.44
2018-11-26T15:35:30.113Z,96512.66
2018-11-26T15:37:57.031Z,96513.97
2018-11-26T15:40:23.933Z,96520.50
2018-11-26T15:42:50.867Z,96515.80
2018-11-26T15:45:17.767Z,96518.41
2018-11-26T15:47:44.730Z,96525.73
2018-11-26T15:50:11.628Z,96524.95
2018-11-26T15:52:38.551Z,96525.73
2018-11-26T15:55:05.473Z,96527.05
2018-11-26T15:57:32.369Z,96524.95
2018-11-26T15:59:59.302Z,96534.11
2018-11-26T16:02:26.195Z,96534.63
2018-11-26T16:04:53.091Z,96537.51
2018-11-26T16:07:19.979Z,96540.37
2018-11-26T16:09:46.879Z,96539.08
2018-11-26T16:12:14.451Z,96541.44
2018-11-26T16:14:40.732Z,96541.95
2018-11-26T16:17:07.669Z,96547.19
2018-11-26T16:19:34.576Z,96549.80
2018-11-26T16:22:01.488Z,96553.72
2018-11-26T16:24:28.389Z,96549.28
2018-11-26T16:26:55.280Z,96556.34
2018-11-26T16:29:22.254Z,96557.38
2018-11-26T16:31:49.171Z,96562.62
2018-11-26T16:34:16.072Z,96566.80
2018-11-26T16:36:43.021Z,96564.19
2018-11-26T16:39:10.014Z,96571.25
2018-11-26T16:41:36.921Z,96573.34
2018-11-26T16:44:03.824Z,96571.52
2018-11-26T16:46:30.720Z,96575.44
2018-11-26T16:48:57.616Z,96577.53
2018-11-26T16:51:24.506Z,96575.96
2018-11-26T16:53:51.396Z,96578.31
2018-11-26T16:56:18.297Z,96581.72
2018-11-26T16:58:45.196Z,96589.83
2018-11-26T17:01:12.093Z,96588.26
2018-11-26T17:03:39.008Z,96594.02
2018-11-26T17:06:05.910Z,96586.95
2018-11-26T17:08:32.806Z,96590.88
2018-11-26T17:10:59.695Z,96588.78
2018-11-26T17:13:26.635Z,96599.24
2018-11-26T17:15:53.545Z,96605.27
2018-11-26T17:18:20.463Z,96602.13
2018-11-26T17:20:47.355Z,96602.64
2018-11-26T17:23:14.255Z,96608.40
2018-11-26T17:25:41.155Z,96604.18
2018-11-26T17:28:08.109Z,96616.25
2018-11-26T17:30:35.013Z,96618.34
2018-11-26T17:33:02.297Z,96621.18
2018-11-26T17:35:29.194Z,96608.89
2018-11-26T17:37:56.091Z,96621.48
2018-11-26T17:40:23.139Z,96623.28
2018-11-26T17:42:50.496Z,96626.71
2018-11-26T17:45:17.919Z,96619.36
2018-11-26T17:47:44.846Z,96629.81
2018-11-26T17:50:11.743Z,96631.13
2018-11-26T17:52:38.639Z,96636.36
2018-11-26T17:55:05.538Z,96631.64
2018-11-26T17:57:32.423Z,96635.57
2018-11-26T17:59:59.352Z,96640.28
2018-11-26T18:02:26.251Z,96639.79
2018-11-26T18:04:53.152Z,96642.90
2018-11-26T18:07:20.051Z,96641.32
2018-11-26T18:09:46.937Z,96649.44
2018-11-26T18:12:13.841Z,96648.42
2018-11-26T18:14:40.753Z,96656.55
2018-11-26T18:17:07.690Z,96658.89
2018-11-26T18:19:34.584Z,96655.48
2018-11-26T18:22:01.511Z,96658.38
2018-11-26T18:24:28.426Z,96664.13
2018-11-26T18:26:55.328Z,96652.80
2018-11-26T18:29:22.224Z,96666.74
2018-11-26T18:31:49.178Z,96674.59
2018-11-26T18:34:16.088Z,96672.24
2018-11-26T18:36:42.999Z,96677.47
2018-11-26T18:39:09.903Z,96677.73
2018-11-26T18:41:36.805Z,96688.20
2018-11-26T18:44:03.701Z,96682.45
2018-11-26T18:46:30.595Z,96686.64
2018-11-26T18:48:57.482Z,96684.55
2018-11-26T18:51:24.381Z,96691.88
2018-11-26T18:53:51.275Z,96693.45
2018-11-26T18:56:18.191Z,96697.64
2018-11-26T18:58:45.078Z,96698.70
2018-11-26T19:01:11.985Z,96701.31
2018-11-26T19:03:38.879Z,96702.11
2018-11-26T19:06:05.791Z,96703.16
2018-11-26T19:08:32.686Z,96706.83
2018-11-26T19:10:59.588Z,96713.62
2018-11-26T19:13:26.502Z,96715.20
2018-11-26T19:15:53.408Z,96711.69
2018-11-26T19:18:20.311Z,96713.27
2018-11-26T19:20:47.210Z,96714.83
2018-11-26T19:23:14.120Z,96717.87
2018-11-26T19:25:41.031Z,96730.52
2018-11-26T19:28:07.945Z,96713.67
2018-11-26T19:30:34.872Z,96721.27
2018-11-26T19:33:01.794Z,96727.30
2018-11-26T19:35:28.706Z,96728.55
2018-11-26T19:37:55.622Z,96728.55
2018-11-26T19:40:22.558Z,96726.56
2018-11-26T19:42:49.450Z,96731.96
2018-11-26T19:45:16.431Z,96728.80
2018-11-26T19:47:43.368Z,96726.23
2018-11-26T19:50:10.326Z,96729.38
2018-11-26T19:52:37.233Z,96731.12
2018-11-26T19:55:04.176Z,96737.82
2018-11-26T19:57:31.066Z,96739.45
2018-11-26T19:59:57.977Z,96743.98
2018-11-26T20:02:24.879Z,96748.61
2018-11-26T20:04:51.772Z,96754.41
2018-11-26T20:07:18.666Z,96759.41
2018-11-26T20:09:45.573Z,96759.23
2018-11-26T20:12:12.480Z,96761.87
2018-11-26T20:14:39.367Z,96760.88
2018-11-26T20:17:06.326Z,96770.05
2018-11-26T20:19:33.226Z,96768.56
2018-11-26T20:22:00.117Z,96777.91
2018-11-26T20:24:27.019Z,96778.81
2018-11-26T20:26:53.918Z,96782.81
2018-11-26T20:29:20.828Z,96784.72
2018-11-26T20:31:47.727Z,96781.67
2018-11-26T20:34:14.667Z,96784.55
2018-11-26T20:36:41.554Z,96785.37
2018-11-26T20:39:08.462Z,96787.00
2018-11-26T20:41:35.360Z,96790.92
2018-11-26T20:44:02.259Z,96792.23
2018-11-26T20:46:29.168Z,96796.70
2018-11-26T20:48:56.072Z,96794.35
2018-11-26T20:51:22.991Z,96799.85
2018-11-26T20:53:49.898Z,96804.07
2018-11-26T20:56:16.793Z,96800.91
2018-11-26T20:58:43.684Z,96809.84
2018-11-26T21:01:10.679Z,96807.28
2018-11-26T21:03:37.605Z,96806.81
2018-11-26T21:06:04.521Z,96814.95
2018-11-26T21:08:31.424Z,96815.47
2018-11-26T21:10:58.334Z,96818.59
2018-11-26T21:13:25.246Z,96819.45
2018-11-26T21:15:52.186Z,96825.78
2018-11-26T21:18:19.116Z,96822.11
2018-11-26T21:20:46.052Z,96823.47
2018-11-26T21:23:14.194Z,96829.47
2018-11-26T21:25:39.979Z,96828.97
2018-11-26T21:28:06.895Z,96829.23
2018-11-26T21:30:33.812Z,96831.86
2018-11-26T21:33:00.729Z,96833.19
2018-11-26T21:35:27.653Z,96830.63
2018-11-26T21:37:54.587Z,96830.63
2018-11-26T21:40:21.494Z,96834.84
2018-11-26T21:42:48.428Z,96833.27
2018-11-26T21:45:15.343Z,96830.92
2018-11-26T21:47:42.264Z,96836.42
2018-11-26T21:50:09.167Z,96833.04
2018-11-26T21:52:36.076Z,96836.72
2018-11-26T21:55:02.992Z,96836.47
2018-11-26T21:57:29.903Z,96835.73
2018-11-26T21:59:56.822Z,96834.64
2018-11-26T22:02:23.724Z,96842.02
2018-11-26T22:04:51.001Z,96839.66
2018-11-26T22:07:17.940Z,96844.09
2018-11-26T22:09:44.859Z,96848.05
2018-11-26T22:12:11.782Z,96851.17
2018-11-26T22:14:38.798Z,96850.41
2018-11-26T22:17:05.714Z,96855.91
2018-11-26T22:19:32.632Z,96857.52
2018-11-26T22:21:59.538Z,96859.86
2018-11-26T22:24:26.464Z,96860.64
2018-11-26T22:26:53.460Z,96861.44
2018-11-26T22:29:20.495Z,96864.56
2018-11-26T22:31:47.427Z,96865.88
2018-11-26T22:34:14.385Z,96862.74
2018-11-26T22:36:41.282Z,96869.03
2018-11-26T22:39:08.233Z,96865.62
2018-11-26T22:41:35.122Z,96872.71
2018-11-26T22:44:02.044Z,96881.87
2018-11-26T22:46:29.203Z,96886.09
2018-11-26T22:48:56.099Z,96890.83
2018-11-26T22:51:22.991Z,96884.80
2018-11-26T22:53:49.899Z,96885.33
2018-11-26T22:56:16.848Z,96897.37
2018-11-26T22:58:43.743Z,96897.88
2018-11-26T23:01:10.645Z,96897.37
2018-11-26T23:03:37.530Z,96896.60
2018-11-26T23:06:04.449Z,96899.73
2018-11-26T23:08:31.367Z,96905.23
2018-11-26T23:10:58.320Z,96896.08
2018-11-26T23:13:25.242Z,96902.62
2018-11-26T23:15:52.138Z,96899.22
2018-11-26T23:18:19.031Z,96903.66
2018-11-26T23:20:45.936Z,96913.36
2018-11-26T23:23:12.865Z,96911.53
2018-11-26T23:25:39.763Z,96899.73
2018-11-26T23:28:06.660Z,96904.99
2018-11-26T23:30:33.559Z,96906.56
2018-11-26T23:33:00.498Z,96906.84
2018-11-26T23:35:27.410Z,96910.77
2018-11-26T23:37:54.366Z,96908.42
2018-11-26T23:40:21.291Z,96913.13
2018-11-26T23:42:48.200Z,96911.30
2018-11-26T23:45:15.133Z,96913.38
2018-11-26T23:47:42.052Z,96918.59
2018-11-26T23:50:08.951Z,96917.30
2018-11-26T23:52:35.868Z,96918.88
2018-11-26T23:55:02.775Z,96921.77
2018-11-26T23:57:29.676Z,96923.66
2018-11-26T23:59:56.587Z,96918.42
